createdAt,value
2019-05-20T00:01:38.393Z,17.29
2019-05-20T00:07:00.200Z,17.30
2019-05-20T00:12:21.666Z,17.31
2019-05-20T00:17:43.335Z,17.04
2019-05-20T00:23:05.464Z,17.08
2019-05-20T00:28:27.114Z,17.01
2019-05-20T00:33:49.405Z,17.07
2019-05-20T00:39:20.848Z,17.10
2019-05-20T00:44:42.542Z,17.24
2019-05-20T00:50:04.312Z,17.05
2019-05-20T00:55:28.214Z,17.11
2019-05-20T01:00:50.197Z,17.19
2019-05-20T01:06:12.877Z,17.08
2019-05-20T01:11:34.777Z,17.00
2019-05-20T01:16:56.297Z,16.86
2019-05-20T01:22:18.250Z,16.69
2019-05-20T01:27:40.029Z,16.51
2019-05-20T01:33:13.943Z,16.50
2019-05-20T01:38:28.447Z,16.43
2019-05-20T01:43:49.833Z,16.31
2019-05-20T01:49:11.729Z,16.05
2019-05-20T01:54:33.372Z,16.01
2019-05-20T01:59:54.970Z,15.92
2019-05-20T02:05:16.609Z,15.71
2019-05-20T02:10:40.019Z,15.58
2019-05-20T02:16:05.151Z,15.39
2019-05-20T02:21:26.807Z,15.15
2019-05-20T02:26:48.718Z,15.14
2019-05-20T02:32:10.646Z,15.28
2019-05-20T02:37:32.439Z,15.05
2019-05-20T02:42:54.124Z,14.91
2019-05-20T02:48:15.730Z,14.82
2019-05-20T02:53:37.774Z,14.81
2019-05-20T02:58:59.596Z,14.85
2019-05-20T03:04:21.157Z,14.78
2019-05-20T03:09:42.756Z,14.72
2019-05-20T03:15:05.070Z,14.59
2019-05-20T03:20:26.704Z,14.59
2019-05-20T03:25:48.362Z,14.56
2019-05-20T03:31:09.817Z,14.56
2019-05-20T03:36:31.580Z,14.61
2019-05-20T03:41:52.947Z,14.68
2019-05-20T03:47:14.704Z,14.83
2019-05-20T03:52:36.912Z,15.02
2019-05-20T03:57:58.196Z,15.11
2019-05-20T04:03:19.994Z,15.35
2019-05-20T04:08:41.817Z,15.57
2019-05-20T04:14:03.448Z,15.69
2019-05-20T04:19:25.353Z,15.83
2019-05-20T04:24:47.613Z,15.98
2019-05-20T04:30:09.832Z,16.05
2019-05-20T04:35:31.534Z,16.11
2019-05-20T04:40:53.582Z,16.21
2019-05-20T04:46:15.336Z,16.37
2019-05-20T04:51:36.630Z,16.28
2019-05-20T04:56:58.339Z,16.58
2019-05-20T05:02:20.050Z,16.80
2019-05-20T05:07:41.874Z,17.17
2019-05-20T05:13:03.545Z,17.35
2019-05-20T05:18:25.402Z,17.66
2019-05-20T05:23:58.854Z,17.95
2019-05-20T05:29:10.939Z,18.12
2019-05-20T05:34:32.594Z,18.39
2019-05-20T05:39:54.118Z,18.79
2019-05-20T05:45:15.751Z,19.25
2019-05-20T05:50:37.601Z,19.59
2019-05-20T05:55:59.245Z,19.71
2019-05-20T06:01:20.958Z,19.77
2019-05-20T06:06:42.471Z,20.06
2019-05-20T06:12:04.422Z,20.38
2019-05-20T06:17:26.019Z,20.44
2019-05-20T06:22:47.650Z,20.43
2019-05-20T06:29:03.478Z,20.39
2019-05-20T06:34:25.145Z,20.39
2019-05-20T06:39:46.552Z,20.92
2019-05-20T06:45:09.045Z,21.30
2019-05-20T06:50:30.668Z,21.38
2019-05-20T06:55:52.257Z,21.39
2019-05-20T07:01:13.818Z,21.48
2019-05-20T07:06:45.281Z,21.59
2019-05-20T07:12:00.074Z,21.83
2019-05-20T07:17:21.724Z,22.08
2019-05-20T07:22:55.384Z,22.43
2019-05-20T07:28:06.801Z,22.41
2019-05-20T07:33:28.682Z,22.73
2019-05-20T07:38:50.352Z,22.91
2019-05-20T07:44:12.198Z,23.18
2019-05-20T07:49:34.141Z,23.12
2019-05-20T07:54:57.507Z,23.46
2019-05-20T08:00:18.976Z,23.05
2019-05-20T08:05:41.262Z,23.27
2019-05-20T08:11:03.379Z,23.18
2019-05-20T08:16:24.962Z,23.32
2019-05-20T08:21:46.508Z,23.83
2019-05-20T08:27:08.480Z,23.69
2019-05-20T08:32:29.975Z,23.79
2019-05-20T08:37:51.890Z,24.15
2019-05-20T08:43:14.164Z,23.87
2019-05-20T08:48:35.746Z,23.62
2019-05-20T08:53:57.842Z,23.66
2019-05-20T08:59:20.390Z,24.04
2019-05-20T09:04:42.408Z,24.32
2019-05-20T09:10:05.448Z,24.22
2019-05-20T09:15:28.098Z,24.50
2019-05-20T09:20:50.612Z,23.92
2019-05-20T09:26:12.715Z,24.25
2019-05-20T09:31:34.984Z,24.58
2019-05-20T09:36:56.934Z,24.92
2019-05-20T09:42:18.603Z,25.05
2019-05-20T09:47:40.547Z,24.53
2019-05-20T09:53:06.601Z,24.88
2019-05-20T09:58:25.744Z,24.97
2019-05-20T10:03:47.915Z,25.01
2019-05-20T10:09:09.347Z,25.38
2019-05-20T10:14:31.287Z,25.64
2019-05-20T10:19:52.923Z,25.78
2019-05-20T10:25:15.214Z,25.85
2019-05-20T10:30:37.056Z,25.83
2019-05-20T10:35:58.563Z,25.90
2019-05-20T10:41:19.966Z,25.27
2019-05-20T10:46:41.976Z,25.52
2019-05-20T10:52:03.501Z,26.28
2019-05-20T10:57:24.830Z,26.78
2019-05-20T11:02:46.667Z,26.50
2019-05-20T11:08:08.288Z,26.96
2019-05-20T11:13:29.965Z,26.90
2019-05-20T11:18:51.603Z,26.75
2019-05-20T11:24:13.413Z,26.93
2019-05-20T11:29:35.079Z,26.83
2019-05-20T11:34:57.075Z,26.83
2019-05-20T11:40:20.091Z,26.81
2019-05-20T11:45:42.031Z,26.73
2019-05-20T11:51:07.096Z,26.92
2019-05-20T11:56:29.095Z,27.21
2019-05-20T12:01:50.878Z,27.55
2019-05-20T12:07:12.539Z,27.48
2019-05-20T12:12:35.295Z,27.70
2019-05-20T12:17:57.266Z,27.59
2019-05-20T12:23:21.878Z,27.58
2019-05-20T12:28:45.750Z,27.53
2019-05-20T12:34:07.192Z,27.60
2019-05-20T12:39:28.647Z,27.45
2019-05-20T12:44:50.424Z,27.60
2019-05-20T12:50:12.598Z,27.68
2019-05-20T12:55:34.338Z,27.77
2019-05-20T13:00:56.087Z,27.97
2019-05-20T13:06:17.996Z,27.96
2019-05-20T13:11:39.841Z,28.32
2019-05-20T13:17:01.933Z,28.25
2019-05-20T13:22:23.514Z,27.56
2019-05-20T13:27:45.537Z,27.11
2019-05-20T13:33:07.261Z,27.71
2019-05-20T13:38:28.909Z,28.83
2019-05-20T13:43:50.242Z,29.93
2019-05-20T13:49:12.129Z,30.04
2019-05-20T13:54:34.094Z,30.22
2019-05-20T13:59:55.587Z,30.53
2019-05-20T14:05:18.403Z,30.79
2019-05-20T14:10:40.470Z,30.40
2019-05-20T14:16:02.826Z,30.54
2019-05-20T14:21:25.412Z,30.98
2019-05-20T14:26:47.806Z,31.01
2019-05-20T14:32:09.891Z,30.95
2019-05-20T14:37:31.867Z,30.42
2019-05-20T14:42:53.907Z,30.10
2019-05-20T14:48:15.811Z,30.39
2019-05-20T14:53:38.108Z,30.42
2019-05-20T14:59:00.235Z,30.62
2019-05-20T15:04:22.781Z,30.26
2019-05-20T15:09:44.441Z,30.68
2019-05-20T15:15:06.743Z,30.24
2019-05-20T15:20:28.558Z,29.94
2019-05-20T15:25:50.453Z,29.60
2019-05-20T15:31:12.290Z,29.34
2019-05-20T15:36:34.348Z,29.18
2019-05-20T15:41:56.550Z,29.26
2019-05-20T15:47:19.159Z,29.46
2019-05-20T15:52:42.114Z,27.61
2019-05-20T15:58:04.299Z,26.34
2019-05-20T16:03:26.717Z,25.50
2019-05-20T16:08:48.744Z,25.22
2019-05-20T16:14:10.301Z,25.33
2019-05-20T16:19:32.450Z,25.43
2019-05-20T16:24:54.274Z,25.35
2019-05-20T16:30:16.043Z,24.97
2019-05-20T16:35:38.075Z,24.69
2019-05-20T16:41:00.267Z,24.23
2019-05-20T16:46:23.901Z,24.17
2019-05-20T16:51:45.845Z,23.96
2019-05-20T16:57:07.637Z,23.84
2019-05-20T17:02:29.814Z,23.75
2019-05-20T17:07:51.716Z,22.82
2019-05-20T17:13:13.386Z,22.02
2019-05-20T17:18:35.036Z,21.30
2019-05-20T17:23:56.809Z,21.04
2019-05-20T17:29:18.804Z,20.69
2019-05-20T17:34:40.483Z,20.47
2019-05-20T17:40:03.846Z,20.05
2019-05-20T17:45:25.683Z,20.09
2019-05-20T17:50:47.458Z,20.22
2019-05-20T17:56:08.915Z,20.13
2019-05-20T18:01:30.688Z,20.10
2019-05-20T18:06:52.486Z,20.07
2019-05-20T18:12:13.963Z,20.02
2019-05-20T18:17:35.748Z,20.04
2019-05-20T18:22:57.036Z,19.97
2019-05-20T18:28:18.587Z,19.83
2019-05-20T18:33:40.362Z,19.72
2019-05-20T18:39:04.104Z,19.66
2019-05-20T18:44:25.917Z,19.61
2019-05-20T18:49:47.741Z,19.58
2019-05-20T18:55:09.497Z,19.63
2019-05-20T19:00:31.735Z,19.63
2019-05-20T19:05:53.633Z,19.50
2019-05-20T19:11:15.205Z,19.37
2019-05-20T19:16:37.093Z,19.22
2019-05-20T19:21:58.642Z,19.16
2019-05-20T19:27:20.438Z,19.10
2019-05-20T19:32:42.197Z,19.10
2019-05-20T19:38:04.264Z,19.13
2019-05-20T19:43:26.229Z,19.11
2019-05-20T19:48:47.754Z,19.12
2019-05-20T19:54:10.136Z,18.67
2019-05-20T19:59:32.228Z,18.05
2019-05-20T20:04:54.729Z,18.11
2019-05-20T20:10:16.871Z,18.35
2019-05-20T20:15:39.303Z,18.35
2019-05-20T20:21:01.537Z,18.44
2019-05-20T20:26:23.298Z,18.52
2019-05-20T20:31:45.529Z,18.52
2019-05-20T20:37:07.726Z,18.54
2019-05-20T20:42:29.572Z,18.54
2019-05-20T20:47:51.859Z,18.58
2019-05-20T20:53:14.364Z,18.64
2019-05-20T20:58:37.089Z,18.72
2019-05-20T21:03:58.868Z,18.71
2019-05-20T21:09:20.896Z,18.61
2019-05-20T21:14:42.607Z,18.41
2019-05-20T21:20:05.721Z,17.99
2019-05-20T21:25:28.230Z,17.99
2019-05-20T21:30:50.404Z,17.74
2019-05-20T21:36:12.616Z,17.48
2019-05-20T21:41:34.635Z,17.15
2019-05-20T21:46:56.403Z,17.06
2019-05-20T21:52:18.453Z,17.15
2019-05-20T21:57:40.093Z,17.15
2019-05-20T22:03:02.447Z,17.26
2019-05-20T22:08:24.429Z,17.28
2019-05-20T22:13:46.109Z,17.07
2019-05-20T22:19:08.221Z,16.93
2019-05-20T22:24:30.250Z,16.75
2019-05-20T22:29:52.222Z,16.57
2019-05-20T22:35:14.268Z,16.36
2019-05-20T22:40:36.207Z,16.19
2019-05-20T22:45:58.012Z,16.14
2019-05-20T22:51:20.135Z,16.08
2019-05-20T22:56:42.038Z,15.99
2019-05-20T23:02:04.111Z,15.91
2019-05-20T23:07:25.912Z,15.82
2019-05-20T23:12:48.282Z,15.73
2019-05-20T23:18:10.306Z,15.62
2019-05-20T23:23:32.281Z,15.74
2019-05-20T23:28:53.889Z,15.76
2019-05-20T23:34:15.468Z,15.59
2019-05-20T23:39:36.939Z,15.39
2019-05-20T23:44:58.973Z,15.34
2019-05-20T23:50:21.012Z,15.33
2019-05-20T23:55:43.429Z,15.27
